Ashburn, VA

05:09 AM EDT am 30. April 2017 (GMT -0400)
Ashburn Village 1 | | Change Station

Höhe 279 ft 39.05 °N, 77.48 °W | Updated 3 seconds ago

Heiter
Heiter
67.2 °F
gefühlte 67.2 °F
N
0.0
Wind Wechselnd Wind aus Nord
Gusts 1.0 mph

Heute
Max. -- | schwach -- °F
--% Regenrisiko
Gestern
Max. -- | schwach -- °F
Precip. -- inch
Druck 30.08 inch
Sichtweite 10.0 Meilen
Wolken Heiter
Taupunkt 63 °F
Feuchtigkeit 87%
Regen 0.00 inch
Schneehöhe Nicht verfügbar..
6:12 AM 8:02 PM
Erstes Viertel, 21% visible
METAR KJYO 300855Z AUTO 03004KT 10SM CLR 20/18 A3008 RMK AO2
Druck 30.08 inch
Sichtweite 10.0 Meilen
Wolken Heiter
Taupunkt 63 °F
Feuchtigkeit 87%
Regen 0.00 inch
Schneehöhe Nicht verfügbar..
6:12 AM 8:02 PM
Erstes Viertel, 21% visible
METAR KJYO 300855Z AUTO 03004KT 10SM CLR 20/18 A3008 RMK AO2

Get Severe Weather Alerts

Thanks for signing up!

Be on the lookout for a verification email in your inbox.

You'll start receiving the daily forecast at 8 AM.

×

10-Day Weather Forecast

Almanac

Astronomie

Apr. 30, 2017 Aufgang Untergang
Genaue Zeit
Bürgerliche Dämmerung
Nautische Dämmerung
Astronomische Dämmerung
Mond
Länge des sichtbaren Lichts
Tageslänge
Tomorrow will be .
, % of the Moon is Illuminated

Heutige Rekorde

State Highs State Lows

Community

WunderPhotos

WunderBlog® & News

Nearby

Luftqualität

  Luftqualität LQ Index Schadstoff
Not available.

Schneehöhe

Station Depth Höhe

Erdbebenaktivität

Stadt Distance Mag. Time & Date
Minimum magnitude displayed is 2.5.

küstennahe Wassertemperaturen

Ort Temperatur

Stations

Wetterstationen in der Umgebung

Stationsstandort Temp. Windchill Taupunkt Feuchtigkeit Wind Precip. Höhe Aktualisiert Art
                   

Watches & Warnings

There are currently no watches in effect.